sensor_id;sensor_type;location;lat;lon;timestamp;pressure;altitude;pressure_sealevel;temperature;humidity
23619;BME280;18207;32.078;34.818;2023-03-19T00:01:52;100581.84;;;24.32;39.01
23619;BME280;18207;32.078;34.818;2023-03-19T00:04:25;100596.25;;;24.30;39.64
23619;BME280;18207;32.078;34.818;2023-03-19T00:06:56;100583.31;;;24.26;39.18
23619;BME280;18207;32.078;34.818;2023-03-19T00:09:27;100582.47;;;24.25;39.33
23619;BME280;18207;32.078;34.818;2023-03-19T00:11:57;100581.22;;;24.23;39.44
23619;BME280;18207;32.078;34.818;2023-03-19T00:14:27;100573.16;;;24.21;39.52
23619;BME280;18207;32.078;34.818;2023-03-19T00:16:58;100570.28;;;24.18;39.43
23619;BME280;18207;32.078;34.818;2023-03-19T00:19:31;100571.00;;;24.15;39.49
23619;BME280;18207;32.078;34.818;2023-03-19T00:22:00;100564.94;;;24.13;39.39
23619;BME280;18207;32.078;34.818;2023-03-19T00:24:31;100561.31;;;24.13;39.66
23619;BME280;18207;32.078;34.818;2023-03-19T00:27:01;100574.53;;;24.12;39.82
23619;BME280;18207;32.078;34.818;2023-03-19T00:29:32;100571.34;;;24.14;39.66
23619;BME280;18207;32.078;34.818;2023-03-19T00:32:02;100568.19;;;24.15;39.76
23619;BME280;18207;32.078;34.818;2023-03-19T00:34:34;100573.44;;;24.17;40.03
23619;BME280;18207;32.078;34.818;2023-03-19T00:37:04;100573.44;;;24.17;39.68
23619;BME280;18207;32.078;34.818;2023-03-19T00:39:35;100573.88;;;24.18;39.83
23619;BME280;18207;32.078;34.818;2023-03-19T00:42:06;100567.47;;;24.18;39.95
23619;BME280;18207;32.078;34.818;2023-03-19T00:44:36;100579.50;;;24.18;39.96
23619;BME280;18207;32.078;34.818;2023-03-19T00:47:07;100579.13;;;24.20;39.95
23619;BME280;18207;32.078;34.818;2023-03-19T00:49:39;100577.94;;;24.21;39.80
23619;BME280;18207;32.078;34.818;2023-03-19T00:52:09;100567.91;;;24.20;39.52
23619;BME280;18207;32.078;34.818;2023-03-19T00:54:39;100574.34;;;24.20;39.72
23619;BME280;18207;32.078;34.818;2023-03-19T00:57:10;100581.59;;;24.21;39.93
23619;BME280;18207;32.078;34.818;2023-03-19T00:59:40;100582.41;;;24.22;39.80
23619;BME280;18207;32.078;34.818;2023-03-19T01:02:10;100586.38;;;24.21;40.08
23619;BME280;18207;32.078;34.818;2023-03-19T01:04:42;100572.34;;;24.21;40.08
23619;BME280;18207;32.078;34.818;2023-03-19T01:07:13;100578.78;;;24.21;39.77
23619;BME280;18207;32.078;34.818;2023-03-19T01:09:43;100585.59;;;24.20;39.87
23619;BME280;18207;32.078;34.818;2023-03-19T01:12:14;100568.72;;;24.20;39.85
23619;BME280;18207;32.078;34.818;2023-03-19T01:14:46;100588.38;;;24.20;39.55
23619;BME280;18207;32.078;34.818;2023-03-19T01:17:17;100578.31;;;24.19;39.61
23619;BME280;18207;32.078;34.818;2023-03-19T01:19:49;100583.13;;;24.19;39.88
23619;BME280;18207;32.078;34.818;2023-03-19T01:22:19;100582.31;;;24.18;39.56
23619;BME280;18207;32.078;34.818;2023-03-19T01:24:50;100589.09;;;24.17;39.95
23619;BME280;18207;32.078;34.818;2023-03-19T01:27:21;100579.03;;;24.17;39.76
23619;BME280;18207;32.078;34.818;2023-03-19T01:29:51;100583.03;;;24.16;39.83
23619;BME280;18207;32.078;34.818;2023-03-19T01:32:21;100594.63;;;24.14;39.93
23619;BME280;18207;32.078;34.818;2023-03-19T01:34:54;100595.00;;;24.13;39.87
23619;BME280;18207;32.078;34.818;2023-03-19T01:37:24;100602.97;;;24.11;39.67
23619;BME280;18207;32.078;34.818;2023-03-19T01:39:55;100596.19;;;24.12;39.79
23619;BME280;18207;32.078;34.818;2023-03-19T01:42:25;100598.53;;;24.10;39.92
23619;BME280;18207;32.078;34.818;2023-03-19T01:44:55;100608.50;;;24.07;39.86
23619;BME280;18207;32.078;34.818;2023-03-19T01:47:32;100596.00;;;24.05;39.84
23619;BME280;18207;32.078;34.818;2023-03-19T01:50:20;100597.06;;;24.00;39.75
23619;BME280;18207;32.078;34.818;2023-03-19T01:52:55;100596.53;;;23.95;40.13
23619;BME280;18207;32.078;34.818;2023-03-19T01:55:25;100594.00;;;23.90;39.92
23619;BME280;18207;32.078;34.818;2023-03-19T01:57:56;100597.53;;;23.87;39.76
23619;BME280;18207;32.078;34.818;2023-03-19T02:00:27;100601.06;;;23.84;40.04
23619;BME280;18207;32.078;34.818;2023-03-19T02:03:01;100599.44;;;23.83;40.13
23619;BME280;18207;32.078;34.818;2023-03-19T02:05:35;100603.44;;;23.82;39.96
23619;BME280;18207;32.078;34.818;2023-03-19T02:08:11;100605.78;;;23.80;39.87
23619;BME280;18207;32.078;34.818;2023-03-19T02:10:45;100602.88;;;23.76;40.11
23619;BME280;18207;32.078;34.818;2023-03-19T02:13:16;100610.00;;;23.74;40.34
23619;BME280;18207;32.078;34.818;2023-03-19T02:15:47;100605.09;;;23.71;40.16
23619;BME280;18207;32.078;34.818;2023-03-19T02:18:18;100603.47;;;23.70;39.97
23619;BME280;18207;32.078;34.818;2023-03-19T02:20:59;100606.63;;;23.68;40.00
23619;BME280;18207;32.078;34.818;2023-03-19T02:23:40;100612.59;;;23.67;40.28
23619;BME280;18207;32.078;34.818;2023-03-19T02:26:19;100610.97;;;23.66;40.29
23619;BME280;18207;32.078;34.818;2023-03-19T02:28:52;100619.38;;;23.66;40.11
23619;BME280;18207;32.078;34.818;2023-03-19T02:31:23;100616.56;;;23.66;40.07
23619;BME280;18207;32.078;34.818;2023-03-19T02:34:00;100614.59;;;23.66;40.17
23619;BME280;18207;32.078;34.818;2023-03-19T02:36:36;100616.56;;;23.66;40.11
23619;BME280;18207;32.078;34.818;2023-03-19T02:39:16;100619.03;;;23.67;39.87
23619;BME280;18207;32.078;34.818;2023-03-19T02:41:53;100622.66;;;23.68;40.16
23619;BME280;18207;32.078;34.818;2023-03-19T02:44:26;100617.03;;;23.68;40.07
23619;BME280;18207;32.078;34.818;2023-03-19T02:46:56;100621.84;;;23.67;39.84
23619;BME280;18207;32.078;34.818;2023-03-19T02:49:26;100620.66;;;23.68;40.07
23619;BME280;18207;32.078;34.818;2023-03-19T02:51:57;100615.06;;;23.68;39.72
23619;BME280;18207;32.078;34.818;2023-03-19T02:54:27;100612.25;;;23.68;40.07
23619;BME280;18207;32.078;34.818;2023-03-19T02:57:00;100616.66;;;23.69;39.80
23619;BME280;18207;32.078;34.818;2023-03-19T02:59:31;100614.22;;;23.68;40.37
23619;BME280;18207;32.078;34.818;2023-03-19T03:02:01;100619.84;;;23.68;39.99
23619;BME280;18207;32.078;34.818;2023-03-19T03:04:32;100623.00;;;23.66;39.94
23619;BME280;18207;32.078;34.818;2023-03-19T03:07:04;100626.16;;;23.65;40.11
23619;BME280;18207;32.078;34.818;2023-03-19T03:09:35;100631.34;;;23.63;40.32
23619;BME280;18207;32.078;34.818;2023-03-19T03:12:09;100634.94;;;23.63;40.26
23619;BME280;18207;32.078;34.818;2023-03-19T03:14:39;100636.94;;;23.63;40.11
23619;BME280;18207;32.078;34.818;2023-03-19T03:17:10;100630.50;;;23.62;40.21
23619;BME280;18207;32.078;34.818;2023-03-19T03:19:41;100639.75;;;23.63;40.29
23619;BME280;18207;32.078;34.818;2023-03-19T03:22:11;100638.59;;;23.64;40.18
23619;BME280;18207;32.078;34.818;2023-03-19T03:24:41;100645.00;;;23.64;40.50
23619;BME280;18207;32.078;34.818;2023-03-19T03:27:13;100638.22;;;23.65;40.04
23619;BME280;18207;32.078;34.818;2023-03-19T03:29:44;100643.44;;;23.67;40.01
23619;BME280;18207;32.078;34.818;2023-03-19T03:32:15;100643.91;;;23.69;40.25
23619;BME280;18207;32.078;34.818;2023-03-19T03:34:45;100642.75;;;23.70;40.08
23619;BME280;18207;32.078;34.818;2023-03-19T03:37:16;100646.03;;;23.72;40.47
23619;BME280;18207;32.078;34.818;2023-03-19T03:39:46;100651.25;;;23.73;40.46
23619;BME280;18207;32.078;34.818;2023-03-19T03:42:20;100654.06;;;23.73;40.27
23619;BME280;18207;32.078;34.818;2023-03-19T03:44:50;100660.84;;;23.72;40.49
23619;BME280;18207;32.078;34.818;2023-03-19T03:47:20;100654.78;;;23.70;40.65
23619;BME280;18207;32.078;34.818;2023-03-19T03:49:50;100655.94;;;23.69;40.43
23619;BME280;18207;32.078;34.818;2023-03-19T03:52:20;100654.34;;;23.68;40.01
23619;BME280;18207;32.078;34.818;2023-03-19T03:54:50;100650.69;;;23.68;40.44
23619;BME280;18207;32.078;34.818;2023-03-19T03:57:22;100659.13;;;23.68;40.23
23619;BME280;18207;32.078;34.818;2023-03-19T03:59:53;100672.69;;;23.66;40.64
23619;BME280;18207;32.078;34.818;2023-03-19T04:02:23;100659.81;;;23.65;40.09
23619;BME280;18207;32.078;34.818;2023-03-19T04:04:54;100672.25;;;23.64;40.36
23619;BME280;18207;32.078;34.818;2023-03-19T04:07:25;100674.59;;;23.62;40.30
23619;BME280;18207;32.078;34.818;2023-03-19T04:09:57;100684.97;;;23.61;40.27
23619;BME280;18207;32.078;34.818;2023-03-19T04:12:28;100693.06;;;23.63;40.30
23619;BME280;18207;32.078;34.818;2023-03-19T04:14:59;100688.63;;;23.62;40.15
23619;BME280;18207;32.078;34.818;2023-03-19T04:17:29;100691.06;;;23.63;40.08
23619;BME280;18207;32.078;34.818;2023-03-19T04:20:00;100695.50;;;23.64;40.25
23619;BME280;18207;32.078;34.818;2023-03-19T04:22:32;100697.94;;;23.66;40.72
23619;BME280;18207;32.078;34.818;2023-03-19T04:25:02;100695.97;;;23.66;40.71
23619;BME280;18207;32.078;34.818;2023-03-19T04:27:34;100693.06;;;23.63;40.62
23619;BME280;18207;32.078;34.818;2023-03-19T04:30:06;100703.34;;;23.59;40.46
23619;BME280;18207;32.078;34.818;2023-03-19T04:32:37;100703.25;;;23.55;40.55
23619;BME280;18207;32.078;34.818;2023-03-19T04:35:07;100714.00;;;23.53;40.72
23619;BME280;18207;32.078;34.818;2023-03-19T04:37:38;100705.97;;;23.52;40.63
23619;BME280;18207;32.078;34.818;2023-03-19T04:40:10;100703.50;;;23.50;40.46
23619;BME280;18207;32.078;34.818;2023-03-19T04:42:42;100709.84;;;23.47;40.86
23619;BME280;18207;32.078;34.818;2023-03-19T04:45:13;100702.03;;;23.41;40.66
23619;BME280;18207;32.078;34.818;2023-03-19T04:47:43;100709.41;;;23.33;40.78
23619;BME280;18207;32.078;34.818;2023-03-19T04:50:13;100705.22;;;23.28;40.69
23619;BME280;18207;32.078;34.818;2023-03-19T04:52:43;100711.91;;;23.23;40.92
23619;BME280;18207;32.078;34.818;2023-03-19T04:55:14;100710.16;;;23.19;41.14
23619;BME280;18207;32.078;34.818;2023-03-19T04:57:45;100718.47;;;23.15;40.91
23619;BME280;18207;32.078;34.818;2023-03-19T05:00:16;100713.56;;;23.12;41.01
23619;BME280;18207;32.078;34.818;2023-03-19T05:02:47;100720.69;;;23.10;41.15
23619;BME280;18207;32.078;34.818;2023-03-19T05:05:17;100727.66;;;23.04;41.11
23619;BME280;18207;32.078;34.818;2023-03-19T05:07:48;100727.91;;;22.99;41.34
23619;BME280;18207;32.078;34.818;2023-03-19T05:10:18;100717.75;;;22.94;41.17
23619;BME280;18207;32.078;34.818;2023-03-19T05:12:52;100732.94;;;22.93;41.24
23619;BME280;18207;32.078;34.818;2023-03-19T05:15:22;100729.31;;;22.93;41.53
23619;BME280;18207;32.078;34.818;2023-03-19T05:17:52;100739.34;;;22.94;41.73
23619;BME280;18207;32.078;34.818;2023-03-19T05:20:22;100728.03;;;22.90;41.56
23619;BME280;18207;32.078;34.818;2023-03-19T05:22:52;100729.19;;;22.89;41.81
23619;BME280;18207;32.078;34.818;2023-03-19T05:25:23;100729.88;;;22.86;41.87
23619;BME280;18207;32.078;34.818;2023-03-19T05:27:54;100729.09;;;22.86;41.52
23619;BME280;18207;32.078;34.818;2023-03-19T05:30:25;100736.22;;;22.83;41.60
23619;BME280;18207;32.078;34.818;2023-03-19T05:32:56;100731.41;;;22.84;41.86
23619;BME280;18207;32.078;34.818;2023-03-19T05:35:27;100727.09;;;22.86;41.87
23619;BME280;18207;32.078;34.818;2023-03-19T05:37:58;100740.78;;;22.88;42.13
23619;BME280;18207;32.078;34.818;2023-03-19T05:40:28;100744.38;;;22.88;42.35
23619;BME280;18207;32.078;34.818;2023-03-19T05:43:00;100737.59;;;22.89;42.28
23619;BME280;18207;32.078;34.818;2023-03-19T05:45:31;100738.44;;;22.90;42.15
23619;BME280;18207;32.078;34.818;2023-03-19T05:48:02;100739.25;;;22.90;42.01
23619;BME280;18207;32.078;34.818;2023-03-19T05:50:32;100737.72;;;22.93;42.04
23619;BME280;18207;32.078;34.818;2023-03-19T05:53:02;100732.94;;;22.93;42.56
23619;BME280;18207;32.078;34.818;2023-03-19T05:55:33;100743.00;;;22.94;42.79
23619;BME280;18207;32.078;34.818;2023-03-19T05:58:05;100736.66;;;22.97;42.68
23619;BME280;18207;32.078;34.818;2023-03-19T06:00:35;100744.72;;;22.99;42.76
23619;BME280;18207;32.078;34.818;2023-03-19T06:03:05;100741.56;;;23.00;42.95
23619;BME280;18207;32.078;34.818;2023-03-19T06:05:35;100737.59;;;23.01;42.75
23619;BME280;18207;32.078;34.818;2023-03-19T06:08:05;100740.88;;;23.03;42.95
23619;BME280;18207;32.078;34.818;2023-03-19T06:10:36;100744.47;;;23.04;42.72
23619;BME280;18207;32.078;34.818;2023-03-19T06:13:08;100726.53;;;23.05;42.88
23619;BME280;18207;32.078;34.818;2023-03-19T06:15:39;100732.59;;;23.07;42.68
23619;BME280;18207;32.078;34.818;2023-03-19T06:18:09;100754.66;;;23.08;42.87
23619;BME280;18207;32.078;34.818;2023-03-19T06:20:39;100748.59;;;23.06;42.78
23619;BME280;18207;32.078;34.818;2023-03-19T06:23:09;100756.56;;;23.04;42.56
23619;BME280;18207;32.078;34.818;2023-03-19T06:25:42;100758.75;;;22.99;42.65
23619;BME280;18207;32.078;34.818;2023-03-19T06:28:14;100759.06;;;22.97;42.73
23619;BME280;18207;32.078;34.818;2023-03-19T06:30:44;100753.84;;;22.96;42.83
23619;BME280;18207;32.078;34.818;2023-03-19T06:33:15;100767.03;;;22.95;42.61
23619;BME280;18207;32.078;34.818;2023-03-19T06:35:44;100767.84;;;22.96;43.07
23619;BME280;18207;32.078;34.818;2023-03-19T06:38:15;100760.72;;;22.98;43.17
23619;BME280;18207;32.078;34.818;2023-03-19T06:40:45;100765.25;;;23.03;43.35
23619;BME280;18207;32.078;34.818;2023-03-19T06:43:17;100771.84;;;23.07;43.54
23619;BME280;18207;32.078;34.818;2023-03-19T06:45:47;100759.94;;;23.10;43.76
23619;BME280;18207;32.078;34.818;2023-03-19T06:48:17;100764.50;;;23.14;43.57
23619;BME280;18207;32.078;34.818;2023-03-19T06:50:47;100773.00;;;23.18;43.48
23619;BME280;18207;32.078;34.818;2023-03-19T06:53:18;100767.50;;;23.21;43.70
23619;BME280;18207;32.078;34.818;2023-03-19T06:55:48;100762.38;;;23.23;43.76
23619;BME280;18207;32.078;34.818;2023-03-19T06:58:20;100761.22;;;23.24;43.54
23619;BME280;18207;32.078;34.818;2023-03-19T07:00:51;100770.06;;;23.26;43.62
23619;BME280;18207;32.078;34.818;2023-03-19T07:03:21;100766.19;;;23.30;43.78
23619;BME280;18207;32.078;34.818;2023-03-19T07:05:52;100773.53;;;23.35;43.67
23619;BME280;18207;32.078;34.818;2023-03-19T07:08:22;100773.31;;;23.40;44.15
23619;BME280;18207;32.078;34.818;2023-03-19T07:11:01;100781.84;;;23.43;43.96
23619;BME280;18207;32.078;34.818;2023-03-19T07:13:34;100782.78;;;23.47;43.80
23619;BME280;18207;32.078;34.818;2023-03-19T07:16:06;100779.22;;;23.50;43.57
23619;BME280;18207;32.078;34.818;2023-03-19T07:18:37;100790.94;;;23.52;43.70
23619;BME280;18207;32.078;34.818;2023-03-19T07:21:06;100777.72;;;23.53;43.50
23619;BME280;18207;32.078;34.818;2023-03-19T07:23:37;100772.56;;;23.55;43.94
23619;BME280;18207;32.078;34.818;2023-03-19T07:26:08;100778.63;;;23.57;43.86
23619;BME280;18207;32.078;34.818;2023-03-19T07:28:40;100788.00;;;23.61;43.68
23619;BME280;18207;32.078;34.818;2023-03-19T07:31:11;100784.00;;;23.62;44.10
23619;BME280;18207;32.078;34.818;2023-03-19T07:33:41;100778.03;;;23.63;44.04
23619;BME280;18207;32.078;34.818;2023-03-19T07:36:11;100778.97;;;23.67;43.68
23619;BME280;18207;32.078;34.818;2023-03-19T07:38:42;100769.13;;;23.73;44.17
23619;BME280;18207;32.078;34.818;2023-03-19T07:41:12;100768.19;;;23.81;44.09
23619;BME280;18207;32.078;34.818;2023-03-19T07:43:45;100766.41;;;23.89;44.28
23619;BME280;18207;32.078;34.818;2023-03-19T07:46:14;100763.00;;;23.95;44.25
23619;BME280;18207;32.078;34.818;2023-03-19T07:48:45;100762.00;;;24.03;43.84
23619;BME280;18207;32.078;34.818;2023-03-19T07:51:15;100767.81;;;24.10;43.83
23619;BME280;18207;32.078;34.818;2023-03-19T07:53:45;100761.59;;;24.17;44.27
23619;BME280;18207;32.078;34.818;2023-03-19T07:56:15;100760.97;;;24.23;44.04
23619;BME280;18207;32.078;34.818;2023-03-19T07:58:47;100756.69;;;24.29;44.10
23619;BME280;18207;32.078;34.818;2023-03-19T08:01:18;100758.88;;;24.35;44.03
23619;BME280;18207;32.078;34.818;2023-03-19T08:03:48;100755.47;;;24.42;44.20
23619;BME280;18207;32.078;34.818;2023-03-19T08:06:18;100744.44;;;24.49;44.35
23619;BME280;18207;32.078;34.818;2023-03-19T08:08:49;100743.00;;;24.55;44.15
23619;BME280;18207;32.078;34.818;2023-03-19T08:11:19;100738.34;;;24.62;43.93
23619;BME280;18207;32.078;34.818;2023-03-19T08:13:51;100740.53;;;24.69;44.16
23619;BME280;18207;32.078;34.818;2023-03-19T08:16:22;100745.44;;;24.72;43.94
23619;BME280;18207;32.078;34.818;2023-03-19T08:18:52;100740.28;;;24.74;43.59
23619;BME280;18207;32.078;34.818;2023-03-19T08:21:23;100744.34;;;24.76;43.51
23619;BME280;18207;32.078;34.818;2023-03-19T08:23:53;100737.91;;;24.76;43.35
23619;BME280;18207;32.078;34.818;2023-03-19T08:26:23;100740.72;;;24.76;43.10
23619;BME280;18207;32.078;34.818;2023-03-19T08:28:55;100753.16;;;24.75;43.30
23619;BME280;18207;32.078;34.818;2023-03-19T08:31:25;100745.50;;;24.75;43.32
23619;BME280;18207;32.078;34.818;2023-03-19T08:33:55;100739.97;;;24.79;43.49
23619;BME280;18207;32.078;34.818;2023-03-19T08:36:27;100740.50;;;24.84;43.50
23619;BME280;18207;32.078;34.818;2023-03-19T08:38:57;100742.31;;;24.92;43.45
23619;BME280;18207;32.078;34.818;2023-03-19T08:41:27;100736.50;;;25.01;43.61
23619;BME280;18207;32.078;34.818;2023-03-19T08:43:59;100735.97;;;25.10;43.38
23619;BME280;18207;32.078;34.818;2023-03-19T08:46:29;100725.34;;;25.19;43.65
23619;BME280;18207;32.078;34.818;2023-03-19T08:49:01;100732.03;;;25.30;43.61
23619;BME280;18207;32.078;34.818;2023-03-19T08:51:31;100736.28;;;25.40;43.77
23619;BME280;18207;32.078;34.818;2023-03-19T08:54:01;100731.59;;;25.47;43.89
23619;BME280;18207;32.078;34.818;2023-03-19T08:56:31;100722.09;;;25.55;43.41
23619;BME280;18207;32.078;34.818;2023-03-19T08:59:03;100721.91;;;25.64;43.49
23619;BME280;18207;32.078;34.818;2023-03-19T09:01:34;100719.59;;;25.69;43.37
23619;BME280;18207;32.078;34.818;2023-03-19T09:04:05;100722.59;;;25.76;43.38
23619;BME280;18207;32.078;34.818;2023-03-19T09:06:36;100720.34;;;25.85;43.50
23619;BME280;18207;32.078;34.818;2023-03-19T09:09:06;100719.69;;;25.92;43.32
23619;BME280;18207;32.078;34.818;2023-03-19T09:11:36;100719.41;;;25.97;43.06
23619;BME280;18207;32.078;34.818;2023-03-19T09:14:10;100716.31;;;26.05;43.19
23619;BME280;18207;32.078;34.818;2023-03-19T09:16:40;100715.66;;;26.11;43.32
23619;BME280;18207;32.078;34.818;2023-03-19T09:19:11;100718.25;;;26.20;43.02
23619;BME280;18207;32.078;34.818;2023-03-19T09:21:41;100721.56;;;26.25;42.89
23619;BME280;18207;32.078;34.818;2023-03-19T09:24:11;100712.78;;;26.30;42.76
23619;BME280;18207;32.078;34.818;2023-03-19T09:26:42;100707.16;;;26.30;42.57
23619;BME280;18207;32.078;34.818;2023-03-19T09:29:14;100707.19;;;26.34;42.54
23619;BME280;18207;32.078;34.818;2023-03-19T09:31:44;100705.28;;;26.38;42.69
23619;BME280;18207;32.078;34.818;2023-03-19T09:34:14;100706.19;;;26.42;42.49
23619;BME280;18207;32.078;34.818;2023-03-19T09:36:44;100692.97;;;26.46;42.45
23619;BME280;18207;32.078;34.818;2023-03-19T09:39:14;100692.28;;;26.52;42.48
23619;BME280;18207;32.078;34.818;2023-03-19T09:41:59;100694.84;;;26.61;42.39
23619;BME280;18207;32.078;34.818;2023-03-19T09:44:37;100679.22;;;26.67;42.36
23619;BME280;18207;32.078;34.818;2023-03-19T09:47:25;100678.53;;;26.73;42.17
23619;BME280;18207;32.078;34.818;2023-03-19T09:49:59;100664.91;;;26.79;42.00
23619;BME280;18207;32.078;34.818;2023-03-19T09:52:43;100669.41;;;26.83;41.98
23619;BME280;18207;32.078;34.818;2023-03-19T09:55:33;100665.84;;;26.86;41.77
23619;BME280;18207;32.078;34.818;2023-03-19T09:58:13;100665.47;;;26.87;41.69
23619;BME280;18207;32.078;34.818;2023-03-19T10:00:49;100661.06;;;26.90;41.88
23619;BME280;18207;32.078;34.818;2023-03-19T10:03:43;100649.78;;;26.90;41.52
23619;BME280;18207;32.078;34.818;2023-03-19T10:06:27;100653.78;;;26.89;41.50
23619;BME280;18207;32.078;34.818;2023-03-19T10:09:31;100658.25;;;26.90;41.46
23619;BME280;18207;32.078;34.818;2023-03-19T10:12:25;100646.16;;;26.89;41.14
23619;BME280;18207;32.078;34.818;2023-03-19T10:15:14;100632.06;;;26.89;41.14
23619;BME280;18207;32.078;34.818;2023-03-19T10:17:56;100626.00;;;26.91;41.07
23619;BME280;18207;32.078;34.818;2023-03-19T10:20:41;100628.78;;;26.87;40.84
23619;BME280;18207;32.078;34.818;2023-03-19T10:23:36;100625.88;;;26.81;40.77
23619;BME280;18207;32.078;34.818;2023-03-19T10:26:12;100625.44;;;26.79;40.70
23619;BME280;18207;32.078;34.818;2023-03-19T10:28:45;100624.19;;;26.76;40.63
23619;BME280;18207;32.078;34.818;2023-03-19T10:31:27;100617.28;;;26.74;40.57
23619;BME280;18207;32.078;34.818;2023-03-19T10:34:22;100623.72;;;26.71;40.52
23619;BME280;18207;32.078;34.818;2023-03-19T10:37:01;100626.53;;;26.71;40.60
23619;BME280;18207;32.078;34.818;2023-03-19T10:39:35;100613.66;;;26.73;40.59
23619;BME280;18207;32.078;34.818;2023-03-19T10:42:30;100608.44;;;26.72;40.35
23619;BME280;18207;32.078;34.818;2023-03-19T10:45:26;100608.34;;;26.68;40.63
23619;BME280;18207;32.078;34.818;2023-03-19T10:48:01;100615.97;;;26.64;40.25
23619;BME280;18207;32.078;34.818;2023-03-19T10:50:37;100600.63;;;26.62;40.26
23619;BME280;18207;32.078;34.818;2023-03-19T10:53:30;100598.56;;;26.59;40.17
23619;BME280;18207;32.078;34.818;2023-03-19T10:56:04;100609.00;;;26.58;40.39
23619;BME280;18207;32.078;34.818;2023-03-19T10:58:36;100609.81;;;26.59;40.20
23619;BME280;18207;32.078;34.818;2023-03-19T11:01:10;100603.81;;;26.60;40.29
23619;BME280;18207;32.078;34.818;2023-03-19T11:03:51;100590.97;;;26.63;40.07
23619;BME280;18207;32.078;34.818;2023-03-19T11:06:39;100592.97;;;26.62;39.98
23619;BME280;18207;32.078;34.818;2023-03-19T11:09:20;100590.59;;;26.64;40.15
23619;BME280;18207;32.078;34.818;2023-03-19T11:11:57;100584.13;;;26.64;40.14
23619;BME280;18207;32.078;34.818;2023-03-19T11:14:34;100590.59;;;26.64;40.01
23619;BME280;18207;32.078;34.818;2023-03-19T11:17:17;100587.75;;;26.64;40.36
23619;BME280;18207;32.078;34.818;2023-03-19T11:19:52;100586.94;;;26.64;40.02
23619;BME280;18207;32.078;34.818;2023-03-19T11:22:27;100580.50;;;26.63;40.05
23619;BME280;18207;32.078;34.818;2023-03-19T11:25:04;100573.63;;;26.61;39.91
23619;BME280;18207;32.078;34.818;2023-03-19T11:27:58;100586.88;;;26.60;40.09
23619;BME280;18207;32.078;34.818;2023-03-19T11:30:45;100581.25;;;26.60;40.09
23619;BME280;18207;32.078;34.818;2023-03-19T11:33:54;100572.78;;;26.60;40.06
23619;BME280;18207;32.078;34.818;2023-03-19T11:36:31;100578.00;;;26.58;39.29
23619;BME280;18207;32.078;34.818;2023-03-19T11:39:17;100573.56;;;26.57;40.01
23619;BME280;18207;32.078;34.818;2023-03-19T11:42:19;100570.66;;;26.54;39.82
23619;BME280;18207;32.078;34.818;2023-03-19T11:45:07;100566.97;;;26.46;39.73
23619;BME280;18207;32.078;34.818;2023-03-19T11:47:47;100563.69;;;26.44;39.85
23619;BME280;18207;32.078;34.818;2023-03-19T11:50:28;100564.09;;;26.43;39.65
23619;BME280;18207;32.078;34.818;2023-03-19T11:53:21;100552.38;;;26.41;39.79
23619;BME280;18207;32.078;34.818;2023-03-19T11:56:07;100555.53;;;26.39;39.64
23619;BME280;18207;32.078;34.818;2023-03-19T11:59:25;100549.41;;;26.34;39.62
23619;BME280;18207;32.078;34.818;2023-03-19T12:05:23;100547.31;;;26.27;39.39
23619;BME280;18207;32.078;34.818;2023-03-19T12:08:14;100529.53;;;26.23;39.65
23619;BME280;18207;32.078;34.818;2023-03-19T12:11:02;100538.72;;;26.20;39.26
23619;BME280;18207;32.078;34.818;2023-03-19T12:13:58;100535.91;;;26.20;39.41
23619;BME280;18207;32.078;34.818;2023-03-19T12:16:54;100526.25;;;26.21;39.54
23619;BME280;18207;32.078;34.818;2023-03-19T12:19:51;100527.09;;;26.22;39.48
23619;BME280;18207;32.078;34.818;2023-03-19T12:22:43;100523.09;;;26.23;39.58
23619;BME280;18207;32.078;34.818;2023-03-19T12:25:41;100526.69;;;26.23;39.62
23619;BME280;18207;32.078;34.818;2023-03-19T12:28:22;100523.50;;;26.25;39.69
23619;BME280;18207;32.078;34.818;2023-03-19T12:34:26;100525.06;;;26.22;39.70
23619;BME280;18207;32.078;34.818;2023-03-19T12:37:12;100526.25;;;26.21;39.45
23619;BME280;18207;32.078;34.818;2023-03-19T12:39:57;100539.56;;;26.21;39.80
23619;BME280;18207;32.078;34.818;2023-03-19T12:42:37;100520.59;;;26.18;39.41
23619;BME280;18207;32.078;34.818;2023-03-19T12:45:26;100523.78;;;26.16;39.83
23619;BME280;18207;32.078;34.818;2023-03-19T12:48:03;100526.91;;;26.11;39.72
23619;BME280;18207;32.078;34.818;2023-03-19T12:50:39;100525.28;;;26.10;39.64
23619;BME280;18207;32.078;34.818;2023-03-19T12:53:25;100530.88;;;26.07;39.68
23619;BME280;18207;32.078;34.818;2023-03-19T12:56:02;100529.56;;;26.01;39.54
23619;BME280;18207;32.078;34.818;2023-03-19T12:58:49;100529.88;;;25.96;39.55
23619;BME280;18207;32.078;34.818;2023-03-19T13:01:28;100529.81;;;25.93;39.85
23619;BME280;18207;32.078;34.818;2023-03-19T13:04:09;100519.69;;;25.88;39.63
23619;BME280;18207;32.078;34.818;2023-03-19T13:06:50;100513.56;;;25.83;39.45
23619;BME280;18207;32.078;34.818;2023-03-19T13:09:31;100512.16;;;25.73;39.47
23619;BME280;18207;32.078;34.818;2023-03-19T13:12:08;100517.25;;;25.64;39.45
23619;BME280;18207;32.078;34.818;2023-03-19T13:14:50;100538.38;;;25.55;39.42
23619;BME280;18207;32.078;34.818;2023-03-19T13:17:35;100533.84;;;25.50;39.41
23619;BME280;18207;32.078;34.818;2023-03-19T13:20:19;100533.06;;;25.50;39.64
23619;BME280;18207;32.078;34.818;2023-03-19T13:23:00;100507.72;;;25.50;39.67
23619;BME280;18207;32.078;34.818;2023-03-19T13:25:36;100535.78;;;25.46;39.75